Time;durP1;ratioP1;P1;durP2;ratioP2;P2;SDS_P1;SDS_P2;PMS_P1;PMS_P2;Temp;Humidity;BMP_temperature;BMP_pressure;BME280_temperature;BME280_humidity;BME280_pressure;Samples;Min_cycle;Max_cycle;Signal;HPM_P1;HPM_P2
2022/02/07 00:00:46;;;;;;;0.60;0.47;;;;;;;0.23;100.00;95632.34;2078745;28;20224;-63
2022/02/07 00:01:59;;;;;;;2.03;0.50;;;;;;;0.16;100.00;95637.75;2082068;28;20200;-63
2022/02/07 00:04:04;;;;;;;0.60;0.50;;;;;;;0.21;100.00;95619.50;2087399;28;20204;-63
2022/02/07 00:05:08;;;;;;;0.70;0.50;;;;;;;0.20;100.00;95604.97;2079050;28;20204;-63
2022/02/07 00:06:10;;;;;;;0.80;0.40;;;;;;;0.14;100.00;95602.69;2079050;28;20189;-63
2022/02/07 00:07:16;;;;;;;0.88;0.55;;;;;;;0.09;100.00;95604.59;2077809;28;20197;-63
2022/02/07 00:08:18;;;;;;;0.88;0.55;;;;;;;0.13;100.00;95606.16;2080183;28;20200;-64
2022/02/07 00:09:19;;;;;;;0.50;0.40;;;;;;;0.06;100.00;95621.03;2079990;28;20201;-63
2022/02/07 00:10:22;;;;;;;0.50;0.40;;;;;;;0.03;100.00;95628.88;2079272;28;20239;-64
2022/02/07 00:11:23;;;;;;;0.60;0.40;;;;;;;-0.02;100.00;95612.78;2078466;28;20225;-64
2022/02/07 00:12:25;;;;;;;1.13;0.50;;;;;;;0.12;100.00;95622.50;2080168;28;20212;-64
2022/02/07 00:13:26;;;;;;;1.38;0.50;;;;;;;0.10;100.00;95632.88;2079880;28;20208;-64
2022/02/07 00:14:28;;;;;;;0.80;0.47;;;;;;;0.04;100.00;95645.16;2079910;28;20197;-64
2022/02/07 00:15:29;;;;;;;1.33;0.50;;;;;;;0.00;100.00;95657.34;2079266;28;20232;-64
2022/02/07 00:16:32;;;;;;;0.60;0.50;;;;;;;0.17;100.00;95683.19;2079884;28;20193;-63
2022/02/07 00:17:34;;;;;;;0.70;0.45;;;;;;;0.05;100.00;95664.84;2079582;28;20224;-64
2022/02/07 00:18:37;;;;;;;0.75;0.50;;;;;;;0.12;100.00;95682.56;2080196;28;20197;-64
2022/02/07 00:19:39;;;;;;;0.60;0.50;;;;;;;0.14;100.00;95688.47;2080164;28;20201;-63
2022/02/07 00:20:40;;;;;;;5.00;0.55;;;;;;;0.19;100.00;95685.69;2078793;28;20231;-64
2022/02/07 00:21:42;;;;;;;1.00;0.50;;;;;;;0.17;100.00;95678.03;2086639;28;20208;-64
2022/02/07 00:22:45;;;;;;;2.13;0.63;;;;;;;0.11;100.00;95686.03;2087553;28;20204;-64
2022/02/07 00:23:46;;;;;;;0.70;0.52;;;;;;;0.15;100.00;95677.25;2079469;28;20208;-63
2022/02/07 00:24:48;;;;;;;0.60;0.50;;;;;;;-0.05;100.00;95630.94;2079032;28;20683;-63
2022/02/07 00:25:49;;;;;;;1.27;0.40;;;;;;;0.09;100.00;95664.66;2076941;28;20228;-64
2022/02/07 00:26:51;;;;;;;1.10;0.50;;;;;;;0.21;100.00;95673.59;2079273;28;20205;-63
2022/02/07 00:27:52;;;;;;;1.15;0.50;;;;;;;0.17;100.00;95662.59;2079515;28;20207;-64
2022/02/07 00:28:54;;;;;;;0.63;0.50;;;;;;;0.11;100.00;95654.28;2080138;28;20331;-63
2022/02/07 00:29:55;;;;;;;2.05;0.50;;;;;;;0.17;100.00;95664.34;2079458;28;20276;-63
2022/02/07 00:30:57;;;;;;;1.02;0.50;;;;;;;0.16;100.00;95663.50;2079578;28;20276;-64
2022/02/07 00:31:59;;;;;;;2.35;0.50;;;;;;;0.12;100.00;95680.00;2079807;28;20640;-63
2022/02/07 00:33:00;;;;;;;0.60;0.50;;;;;;;0.10;100.00;95660.34;2079855;28;20215;-63
2022/02/07 00:34:02;;;;;;;0.70;0.50;;;;;;;0.13;100.00;95673.91;2079671;28;20197;-63
2022/02/07 00:35:06;;;;;;;3.45;0.73;;;;;;;0.12;100.00;95687.72;2079816;28;20203;-63
2022/02/07 00:36:08;;;;;;;0.60;0.40;;;;;;;0.06;100.00;95685.41;2078503;28;20223;-63
2022/02/07 00:37:10;;;;;;;0.60;0.40;;;;;;;0.04;100.00;95718.09;2079136;28;20203;-63
2022/02/07 00:38:13;;;;;;;0.80;0.50;;;;;;;-0.01;100.00;95699.41;2078735;28;20201;-63
2022/02/07 00:39:22;;;;;;;2.90;0.50;;;;;;;-0.03;100.00;95680.63;2080090;28;20201;-63
2022/02/07 00:41:36;;;;;;;2.78;0.50;;;;;;;0.07;100.00;95679.34;2079961;28;20212;-63
2022/02/07 00:42:50;;;;;;;0.55;0.40;;;;;;;-0.05;100.00;95666.97;2079518;28;20197;-64
2022/02/07 00:43:57;;;;;;;0.57;0.40;;;;;;;0.08;100.00;95682.72;2077894;28;20722;-63
2022/02/07 00:45:13;;;;;;;1.17;0.50;;;;;;;0.10;100.00;95671.50;2079205;28;20283;-63
2022/02/07 00:46:22;;;;;;;0.60;0.50;;;;;;;0.14;100.00;95659.31;2079274;28;20223;-63
2022/02/07 00:47:24;;;;;;;0.50;0.40;;;;;;;0.14;100.00;95667.06;2079880;28;20195;-63
2022/02/07 00:48:25;;;;;;;0.85;0.50;;;;;;;0.02;100.00;95652.97;2079993;28;20211;-63
2022/02/07 00:49:27;;;;;;;3.80;0.50;;;;;;;0.24;100.00;95680.38;2080375;28;20227;-63
2022/02/07 00:50:30;;;;;;;0.60;0.40;;;;;;;0.21;100.00;95683.91;2081074;28;20224;-62
2022/02/07 00:51:32;;;;;;;5.75;0.50;;;;;;;0.19;100.00;95678.81;2081254;28;20203;-63
2022/02/07 00:52:33;;;;;;;0.60;0.40;;;;;;;0.21;100.00;95693.38;2080782;28;20201;-63
2022/02/07 00:53:34;;;;;;;1.42;0.40;;;;;;;0.09;100.00;95680.09;2081466;28;20204;-62
2022/02/07 00:54:36;;;;;;;0.60;0.40;;;;;;;0.12;100.00;95685.13;2080955;28;20199;-63
2022/02/07 00:55:38;;;;;;;0.60;0.40;;;;;;;0.07;100.00;95691.38;2081078;28;20231;-63
2022/02/07 00:56:40;;;;;;;1.13;0.50;;;;;;;0.06;100.00;95698.28;2081479;28;20776;-62
2022/02/07 00:57:41;;;;;;;0.98;0.60;;;;;;;0.10;100.00;95693.81;2081558;28;20198;-62
2022/02/07 00:58:43;;;;;;;0.77;0.45;;;;;;;0.04;100.00;95697.50;2081618;28;20211;-63
2022/02/07 00:59:44;;;;;;;1.10;0.50;;;;;;;0.09;100.00;95699.88;2081500;28;20288;-62
2022/02/07 01:00:46;;;;;;;1.02;0.60;;;;;;;0.11;100.00;95685.19;2080868;28;20227;-62
2022/02/07 01:01:47;;;;;;;0.95;0.50;;;;;;;0.11;100.00;95678.28;2081406;28;20236;-61
2022/02/07 01:02:49;;;;;;;0.93;0.40;;;;;;;0.14;100.00;95688.47;2081471;28;20548;-62
2022/02/07 01:03:50;;;;;;;0.60;0.40;;;;;;;0.16;100.00;95694.41;2080810;28;20201;-62
2022/02/07 01:04:52;;;;;;;1.90;0.73;;;;;;;0.23;100.00;95696.72;2080860;28;20663;-61
2022/02/07 01:05:54;;;;;;;0.85;0.50;;;;;;;0.16;100.00;95686.69;2080997;28;20230;-62
2022/02/07 01:06:55;;;;;;;1.50;0.52;;;;;;;0.18;100.00;95690.03;2081472;28;20205;-62
2022/02/07 01:07:58;;;;;;;0.88;0.50;;;;;;;0.17;100.00;95703.78;2081374;28;20671;-62
2022/02/07 01:09:17;;;;;;;0.98;0.50;;;;;;;0.21;100.00;95708.81;2081252;28;20309;-62
2022/02/07 01:10:37;;;;;;;0.70;0.60;;;;;;;0.19;100.00;95706.31;2080894;28;20548;-62
2022/02/07 01:14:17;;;;;;;0.63;0.45;;;;;;;0.28;100.00;95725.69;2081298;28;20201;-62
2022/02/07 01:15:39;;;;;;;1.33;0.50;;;;;;;0.37;100.00;95739.03;2080974;28;20569;-62
2022/02/07 01:51:28;;;;;;;0.70;0.50;;;;;;;0.68;99.33;95855.44;2078786;28;20746;-61
2022/02/07 01:55:05;;;;;;;1.02;0.47;;;;;;;0.70;99.47;95882.81;2080985;28;20219;-61
2022/02/07 01:56:09;;;;;;;8.48;0.70;;;;;;;0.73;99.33;95887.03;2080451;28;20224;-62
2022/02/07 01:57:13;;;;;;;1.77;0.63;;;;;;;0.62;99.87;95863.41;2081104;28;20205;-62
2022/02/07 01:58:16;;;;;;;0.60;0.50;;;;;;;0.64;99.07;95872.75;2080735;28;20201;-62
2022/02/07 01:59:17;;;;;;;5.35;0.50;;;;;;;0.74;99.39;95889.50;2080922;28;20320;-62
2022/02/07 02:00:19;;;;;;;1.75;0.63;;;;;;;0.75;98.93;95895.53;2080574;28;20235;-62
2022/02/07 02:01:23;;;;;;;1.55;0.60;;;;;;;0.79;98.53;95889.34;2079555;28;20197;-62
2022/02/07 02:02:24;;;;;;;1.88;0.75;;;;;;;0.83;98.64;95900.38;2080728;28;20205;-61
2022/02/07 02:03:26;;;;;;;1.63;0.50;;;;;;;0.83;98.89;95914.09;2080973;28;20205;-62
2022/02/07 02:04:28;;;;;;;0.70;0.50;;;;;;;0.83;99.16;95915.84;2081219;28;20236;-62
2022/02/07 02:05:36;;;;;;;0.90;0.50;;;;;;;0.65;99.41;95891.63;2079598;28;20231;-62
2022/02/07 02:06:40;;;;;;;1.20;0.60;;;;;;;0.50;99.16;95864.75;2080652;28;20204;-62
2022/02/07 02:07:43;;;;;;;3.17;0.68;;;;;;;0.81;99.77;95915.06;2081085;28;20208;-62
2022/02/07 02:08:44;;;;;;;0.80;0.40;;;;;;;0.82;99.91;95914.16;2081087;28;20207;-62
2022/02/07 02:09:46;;;;;;;1.05;0.60;;;;;;;0.79;99.93;95913.38;2080934;28;20204;-62
2022/02/07 02:10:52;;;;;;;3.05;0.70;;;;;;;0.77;100.00;95922.06;2080573;28;20700;-62
2022/02/07 02:11:54;;;;;;;2.35;0.50;;;;;;;0.79;99.92;95935.75;2081134;28;20706;-62
2022/02/07 02:13:22;;;;;;;2.40;0.70;;;;;;;0.79;100.00;95928.84;2080968;28;20224;-62
2022/02/07 02:15:45;;;;;;;0.95;0.60;;;;;;;0.83;99.52;95937.28;2078982;28;20300;-62
2022/02/07 02:17:06;;;;;;;1.80;0.63;;;;;;;0.76;99.98;95935.84;2079270;28;20197;-62
2022/02/07 02:20:53;;;;;;;0.80;0.60;;;;;;;0.82;99.03;95943.34;2080263;28;20216;-62
2022/02/07 02:37:56;;;;;;;3.25;0.70;;;;;;;0.93;98.26;95989.31;2080978;28;20201;-63
2022/02/07 02:45:35;;;;;;;2.10;0.68;;;;;;;0.89;97.51;96004.06;2080311;28;20228;-62
2022/02/07 02:46:36;;;;;;;2.70;0.90;;;;;;;0.92;97.08;96005.69;2079274;28;20201;-62
2022/02/07 02:47:38;;;;;;;2.60;0.90;;;;;;;0.89;96.84;96009.22;2080137;28;20205;-63
2022/02/07 02:48:42;;;;;;;3.60;0.68;;;;;;;0.90;97.20;96025.53;2081002;28;20216;-63
2022/02/07 02:49:48;;;;;;;2.25;0.85;;;;;;;0.95;96.49;96011.56;2080750;28;20197;-63
2022/02/07 02:50:51;;;;;;;4.00;0.88;;;;;;;0.84;96.07;96008.56;2080301;28;20221;-63
2022/02/07 02:51:53;;;;;;;6.45;0.80;;;;;;;0.96;97.21;96036.47;2080592;28;20233;-63
2022/02/07 02:53:04;;;;;;;2.65;0.80;;;;;;;0.95;97.27;96028.78;2080810;28;20200;-63
2022/02/07 02:54:06;;;;;;;5.03;1.02;;;;;;;0.99;97.01;96038.06;2079316;28;20667;-62
2022/02/07 02:55:08;;;;;;;1.10;0.70;;;;;;;0.96;97.09;96051.06;2079719;28;20193;-63
2022/02/07 02:56:09;;;;;;;1.88;0.73;;;;;;;0.95;97.77;96052.00;2080746;28;20200;-63
2022/02/07 02:57:11;;;;;;;2.83;0.80;;;;;;;0.79;98.13;96037.13;2080758;28;20254;-63
2022/02/07 02:58:16;;;;;;;2.08;0.80;;;;;;;0.83;97.96;96037.84;2080824;28;20843;-63
2022/02/07 02:59:18;;;;;;;2.30;1.25;;;;;;;0.92;97.93;96057.25;2080841;28;20704;-64
2022/02/07 03:00:19;;;;;;;4.38;0.98;;;;;;;0.87;97.72;96046.28;2079526;28;20205;-63
2022/02/07 03:01:21;;;;;;;8.73;2.65;;;;;;;0.90;97.22;96059.91;2079374;28;20208;-63
2022/02/07 03:02:22;;;;;;;2.45;0.90;;;;;;;0.89;97.76;96060.81;2080710;28;20663;-63
2022/02/07 03:03:24;;;;;;;4.00;0.85;;;;;;;0.67;97.76;96036.75;2080698;28;20193;-63
2022/02/07 03:04:25;;;;;;;3.92;1.35;;;;;;;0.82;97.52;96058.50;2080733;28;20223;-63
2022/02/07 03:05:27;;;;;;;3.35;0.93;;;;;;;0.81;97.53;96069.75;2079205;28;20225;-63
2022/02/07 03:06:29;;;;;;;1.60;0.70;;;;;;;0.83;97.73;96071.34;2077847;28;20197;-63
2022/02/07 03:07:30;;;;;;;2.65;0.85;;;;;;;0.78;97.87;96075.84;2080750;28;20204;-63
2022/02/07 03:08:32;;;;;;;2.30;0.90;;;;;;;0.74;98.18;96069.13;2080719;28;20226;-64
2022/02/07 03:09:34;;;;;;;3.25;0.80;;;;;;;0.78;97.20;96083.56;2080641;28;20197;-63
2022/02/07 03:11:50;;;;;;;3.60;0.93;;;;;;;0.69;97.34;96071.06;2080577;28;20215;-63
2022/02/07 03:13:07;;;;;;;6.88;1.35;;;;;;;0.65;96.43;96079.78;2080132;28;20189;-64
2022/02/07 03:14:19;;;;;;;6.88;1.02;;;;;;;0.59;96.50;96061.09;2079118;28;20215;-64
2022/02/07 03:16:40;;;;;;;4.35;1.40;;;;;;;0.52;95.99;96059.63;2080564;28;20680;-63
2022/02/07 03:17:42;;;;;;;4.97;0.80;;;;;;;0.55;96.18;96058.69;2080659;28;20651;-63
2022/02/07 03:18:43;;;;;;;5.10;1.60;;;;;;;0.72;96.20;96088.97;2078030;28;20203;-63
2022/02/07 03:19:45;;;;;;;3.38;1.25;;;;;;;0.55;96.34;96074.16;2080519;28;20643;-63
2022/02/07 03:20:46;;;;;;;4.00;0.90;;;;;;;0.58;95.67;96071.44;2080155;28;20239;-63
2022/02/07 03:21:48;;;;;;;3.67;0.73;;;;;;;0.74;95.02;96094.91;2079947;28;20193;-63
2022/02/07 03:22:50;;;;;;;4.10;1.10;;;;;;;0.75;94.52;96094.00;2079953;28;20208;-63
2022/02/07 03:23:51;;;;;;;7.60;0.95;;;;;;;0.78;94.25;96096.47;2079931;28;20216;-64
2022/02/07 03:24:52;;;;;;;7.20;0.93;;;;;;;0.80;92.91;96084.34;2080346;28;20751;-63
2022/02/07 03:25:55;;;;;;;2.63;0.80;;;;;;;0.84;93.66;96091.06;2079896;28;20691;-63
2022/02/07 03:26:56;;;;;;;9.35;0.90;;;;;;;0.75;94.44;96076.81;2079393;28;20209;-63
2022/02/07 03:27:58;;;;;;;4.22;1.05;;;;;;;0.65;93.71;96041.09;2080641;28;20224;-63
2022/02/07 03:28:59;;;;;;;3.67;1.00;;;;;;;0.74;93.66;96057.06;2080305;28;20686;-63
2022/02/07 03:30:01;;;;;;;3.15;0.80;;;;;;;0.76;93.24;96057.00;2080056;28;20525;-63
2022/02/07 03:31:02;;;;;;;5.35;1.05;;;;;;;0.80;92.57;96079.19;2079938;28;20221;-63
2022/02/07 03:32:06;;;;;;;1.65;0.82;;;;;;;0.77;93.12;96085.31;2080300;28;20263;-64
2022/02/07 03:33:08;;;;;;;1.67;0.77;;;;;;;0.80;93.41;96094.66;2079839;28;20265;-63
2022/02/07 03:34:09;;;;;;;3.10;0.90;;;;;;;0.78;92.97;96107.63;2079990;28;20216;-64
2022/02/07 03:35:11;;;;;;;4.53;0.95;;;;;;;0.83;92.48;96110.03;2079922;28;20197;-63
2022/02/07 03:36:14;;;;;;;4.03;0.95;;;;;;;0.92;91.94;96109.69;2079150;28;20262;-63
2022/02/07 03:37:15;;;;;;;2.15;0.80;;;;;;;0.66;92.05;96092.59;2080531;28;20199;-63
2022/02/07 03:38:16;;;;;;;5.32;0.93;;;;;;;0.87;92.78;96139.13;2080505;28;20208;-63
2022/02/07 03:39:18;;;;;;;5.25;1.08;;;;;;;0.88;92.98;96174.31;2080403;28;20189;-63
2022/02/07 03:40:20;;;;;;;4.15;0.93;;;;;;;0.79;93.88;96196.13;2079426;28;20205;-64
2022/02/07 03:41:22;;;;;;;5.18;1.15;;;;;;;0.79;94.50;96240.78;2078753;28;20612;-63
2022/02/07 03:42:23;;;;;;;4.95;1.77;;;;;;;0.72;94.97;96288.28;2079866;28;20220;-64
2022/02/07 03:43:25;;;;;;;2.65;0.60;;;;;;;0.26;95.87;96295.00;2080361;28;20204;-63
2022/02/07 03:44:26;;;;;;;0.80;0.63;;;;;;;-0.12;97.41;96286.75;2080384;28;20193;-63
2022/02/07 03:45:28;;;;;;;0.70;0.50;;;;;;;-0.27;98.56;96290.66;2079631;28;21112;-64
2022/02/07 03:46:30;;;;;;;1.50;0.50;;;;;;;-0.48;99.28;96289.56;2079839;28;20253;-63
2022/02/07 03:47:32;;;;;;;0.70;0.50;;;;;;;-0.60;100.00;96302.81;2080116;28;20193;-63
2022/02/07 03:48:33;;;;;;;2.33;0.55;;;;;;;-0.63;100.00;96278.03;2080363;28;20203;-62
2022/02/07 03:49:35;;;;;;;0.60;0.40;;;;;;;-0.65;100.00;96274.66;2080383;28;20302;-62
2022/02/07 03:50:36;;;;;;;0.60;0.40;;;;;;;-0.67;100.00;96278.97;2079902;28;20231;-62
2022/02/07 03:51:45;;;;;;;0.73;0.50;;;;;;;-0.66;99.86;96288.41;2079928;28;20195;-61
2022/02/07 03:52:48;;;;;;;1.60;0.57;;;;;;;-0.63;99.33;96282.31;2079459;28;20200;-63
2022/02/07 03:53:50;;;;;;;1.45;0.57;;;;;;;-0.62;98.88;96278.88;2078909;28;20227;-63
2022/02/07 03:54:51;;;;;;;1.58;0.50;;;;;;;-0.77;98.81;96269.84;2080102;28;20746;-63
2022/02/07 03:55:53;;;;;;;0.80;0.55;;;;;;;-0.61;98.83;96280.53;2079793;28;20453;-63
2022/02/07 03:56:54;;;;;;;1.13;0.57;;;;;;;-0.60;98.81;96287.38;2080317;28;20203;-63
2022/02/07 03:57:56;;;;;;;0.50;0.40;;;;;;;-0.64;98.22;96293.50;2080252;28;20215;-63
2022/02/07 03:58:57;;;;;;;0.80;0.50;;;;;;;-0.56;98.47;96303.56;2080325;28;20210;-63
2022/02/07 04:00:03;;;;;;;0.60;0.40;;;;;;;-0.65;98.30;96290.09;2080270;28;20709;-63
2022/02/07 04:01:05;;;;;;;2.60;0.60;;;;;;;-0.63;98.70;96308.03;2079734;28;20215;-64
2022/02/07 04:02:06;;;;;;;2.15;0.50;;;;;;;-0.65;98.87;96295.25;2080188;28;20207;-63
2022/02/07 04:03:10;;;;;;;2.25;0.50;;;;;;;-0.57;97.10;96301.88;2080060;28;20206;-63
2022/02/07 04:04:11;;;;;;;0.93;0.45;;;;;;;-0.65;97.39;96314.94;2080074;28;20203;-63
2022/02/07 04:06:34;;;;;;;5.55;0.55;;;;;;;-0.63;98.22;96332.06;2080141;28;20200;-63
2022/02/07 04:07:35;;;;;;;0.60;0.47;;;;;;;-0.62;97.73;96338.03;2080023;28;20328;-62
2022/02/07 04:08:40;;;;;;;1.38;0.68;;;;;;;-0.66;97.80;96347.56;2080127;28;20766;-63
2022/02/07 04:09:46;;;;;;;0.70;0.50;;;;;;;-0.63;97.23;96338.91;2080107;28;20210;-63
2022/02/07 04:11:01;;;;;;;7.22;1.05;;;;;;;-0.58;98.33;96346.50;2079785;28;20234;-62
2022/02/07 04:12:09;;;;;;;4.22;0.70;;;;;;;-0.61;97.88;96361.16;2082201;28;20206;-62
2022/02/07 04:13:12;;;;;;;2.30;0.70;;;;;;;-0.69;97.76;96352.78;2083736;28;20203;-62
2022/02/07 04:14:20;;;;;;;8.55;0.68;;;;;;;-0.67;98.01;96360.44;2080019;28;20203;-61
2022/02/07 04:15:22;;;;;;;3.95;0.60;;;;;;;-0.61;98.36;96368.84;2078864;28;20228;-62
2022/02/07 04:16:27;;;;;;;0.93;0.60;;;;;;;-0.66;97.83;96364.72;2079811;28;20247;-62
2022/02/07 04:17:30;;;;;;;2.72;0.70;;;;;;;-0.62;97.67;96382.59;2080019;28;20638;-62
2022/02/07 04:18:49;;;;;;;2.50;0.60;;;;;;;-0.54;97.66;96384.13;2079596;28;20200;-62
2022/02/07 04:19:57;;;;;;;5.10;0.75;;;;;;;-0.55;98.15;96392.72;2078413;28;20222;-62
2022/02/07 04:20:59;;;;;;;3.78;0.73;;;;;;;-0.57;97.07;96387.59;2079164;28;20223;-62
2022/02/07 04:22:05;;;;;;;3.13;1.20;;;;;;;-0.64;97.72;96389.50;2079349;28;20206;-62
2022/02/07 04:23:06;;;;;;;4.78;0.80;;;;;;;-0.60;98.14;96398.81;2079033;28;20647;-62
2022/02/07 04:24:08;;;;;;;7.38;1.45;;;;;;;-0.58;98.05;96400.53;2079727;28;20212;-62
2022/02/07 04:25:12;;;;;;;1.73;0.70;;;;;;;-0.69;97.63;96385.38;2078621;28;20207;-62
2022/02/07 04:26:14;;;;;;;3.80;0.95;;;;;;;-0.65;97.86;96407.56;2079581;28;20204;-61
2022/02/07 04:27:16;;;;;;;5.63;1.48;;;;;;;-0.60;97.35;96416.00;2079523;28;20200;-62
2022/02/07 04:28:18;;;;;;;8.18;2.03;;;;;;;-0.63;98.15;96411.78;2079750;28;20206;-62
2022/02/07 04:29:21;;;;;;;8.43;0.70;;;;;;;-0.66;98.00;96426.47;2080092;28;20219;-62
2022/02/07 04:30:22;;;;;;;3.10;0.70;;;;;;;-0.69;98.07;96429.94;2079699;28;20204;-62
2022/02/07 04:31:24;;;;;;;7.47;1.30;;;;;;;-0.73;98.17;96407.75;2080117;28;20677;-62
2022/02/07 04:32:25;;;;;;;3.05;0.77;;;;;;;-0.65;98.39;96436.72;2079975;28;20224;-62
2022/02/07 04:33:27;;;;;;;2.25;0.63;;;;;;;-0.72;98.36;96421.50;2079936;28;20249;-62
2022/02/07 04:34:28;;;;;;;3.28;1.10;;;;;;;-0.67;97.99;96433.31;2080227;28;20195;-62
2022/02/07 04:35:30;;;;;;;2.03;0.60;;;;;;;-0.65;98.28;96439.28;2079678;28;20243;-62
2022/02/07 04:36:32;;;;;;;0.95;0.50;;;;;;;-0.63;97.13;96445.22;2080149;28;20195;-62
2022/02/07 04:37:33;;;;;;;3.28;0.80;;;;;;;-0.58;97.69;96439.94;2079749;28;20200;-62
2022/02/07 04:38:35;;;;;;;2.72;0.60;;;;;;;-0.56;97.62;96442.50;2080012;28;20227;-62
2022/02/07 04:39:36;;;;;;;6.38;0.85;;;;;;;-0.65;98.55;96449.56;2079940;28;20311;-63
2022/02/07 04:40:38;;;;;;;0.80;0.55;;;;;;;-0.63;98.22;96447.81;2079564;28;20224;-62
2022/02/07 04:41:41;;;;;;;1.48;0.52;;;;;;;-0.65;97.87;96448.72;2080089;28;20204;-63
2022/02/07 04:42:43;;;;;;;2.95;0.80;;;;;;;-0.62;97.32;96457.19;2080088;28;20195;-63
2022/02/07 04:43:59;;;;;;;6.43;0.85;;;;;;;-0.61;97.81;96465.75;2080045;28;20210;-63
2022/02/07 04:46:25;;;;;;;5.80;0.70;;;;;;;-0.58;97.11;96470.81;2078884;28;20717;-62
2022/02/07 04:48:57;;;;;;;6.43;0.85;;;;;;;-0.76;98.03;96469.59;2079775;28;20238;-62
2022/02/07 04:55:33;;;;;;;5.20;0.73;;;;;;;-0.81;99.90;96484.28;2079527;28;20207;-61
2022/02/07 04:58:03;;;;;;;5.10;0.50;;;;;;;-0.86;99.14;96483.56;2080162;28;20199;-62
2022/02/07 04:59:11;;;;;;;12.98;1.60;;;;;;;-0.92;98.94;96475.97;2079755;28;20299;-62
2022/02/07 05:03:44;;;;;;;6.07;0.70;;;;;;;-0.77;97.92;96500.47;2079593;28;20200;-62
2022/02/07 05:04:55;;;;;;;2.90;0.82;;;;;;;-0.80;97.69;96502.25;2078255;28;20203;-62
2022/02/07 05:14:50;;;;;;;3.63;0.63;;;;;;;-0.94;100.00;96545.47;2080002;28;20196;-62
2022/02/07 05:15:52;;;;;;;1.55;0.70;;;;;;;-0.94;100.00;96547.16;2079411;28;20227;-62
2022/02/07 05:16:55;;;;;;;6.35;1.00;;;;;;;-0.94;100.00;96550.63;2079454;28;20213;-63
2022/02/07 05:17:58;;;;;;;4.47;0.70;;;;;;;-0.92;99.88;96561.69;2079349;28;20550;-62
2022/02/07 05:19:04;;;;;;;2.35;0.60;;;;;;;-0.96;100.00;96554.94;2079116;28;20402;-62
2022/02/07 05:20:08;;;;;;;3.83;0.90;;;;;;;-0.95;100.00;96568.63;2079469;28;20202;-63
2022/02/07 05:21:10;;;;;;;4.65;1.08;;;;;;;-1.00;100.00;96572.16;2078320;28;20203;-63
2022/02/07 05:22:11;;;;;;;4.53;0.82;;;;;;;-0.98;99.92;96571.28;2079831;28;20204;-62
2022/02/07 05:23:13;;;;;;;1.50;0.60;;;;;;;-0.98;100.00;96566.13;2079770;28;20220;-62
2022/02/07 05:24:15;;;;;;;1.00;0.90;;;;;;;-0.98;100.00;96576.41;2080009;28;20200;-62
2022/02/07 05:25:17;;;;;;;6.28;1.38;;;;;;;-1.00;100.00;96564.44;2078835;28;20207;-62
2022/02/07 05:26:19;;;;;;;7.50;1.10;;;;;;;-1.06;100.00;96556.88;2079142;28;20235;-62
2022/02/07 05:27:20;;;;;;;3.88;0.80;;;;;;;-0.97;99.62;96570.41;2078543;28;20797;-62
2022/02/07 05:28:22;;;;;;;5.80;0.98;;;;;;;-0.96;99.78;96574.66;2079969;28;20200;-62
2022/02/07 05:29:24;;;;;;;2.60;0.88;;;;;;;-0.94;99.82;96580.59;2079752;28;20777;-62
2022/02/07 05:30:25;;;;;;;8.02;0.90;;;;;;;-0.97;99.81;96581.53;2078374;28;20238;-62
2022/02/07 05:31:27;;;;;;;3.65;0.80;;;;;;;-0.95;99.77;96584.91;2077721;28;20203;-62
2022/02/07 05:32:29;;;;;;;1.70;0.60;;;;;;;-0.98;100.00;96584.13;2079252;28;20558;-62
2022/02/07 05:33:30;;;;;;;2.85;1.00;;;;;;;-0.93;99.91;96593.44;2079304;28;21105;-62
2022/02/07 05:34:32;;;;;;;2.83;0.88;;;;;;;-0.91;99.34;96590.81;2079890;28;20206;-62
2022/02/07 05:35:33;;;;;;;3.97;1.00;;;;;;;-0.88;99.13;96611.31;2079834;28;20226;-62
2022/02/07 05:36:41;;;;;;;2.67;0.90;;;;;;;-0.86;98.57;96610.41;2080581;28;20208;-62
2022/02/07 05:37:43;;;;;;;16.35;0.93;;;;;;;-0.82;98.66;96618.91;2081398;28;20199;-62
2022/02/07 05:38:48;;;;;;;2.75;0.90;;;;;;;-0.81;98.91;96616.28;2080157;28;20194;-62
2022/02/07 05:39:54;;;;;;;7.20;1.00;;;;;;;-0.79;99.03;96616.25;2081307;28;20572;-62
2022/02/07 05:41:00;;;;;;;4.22;0.90;;;;;;;-0.77;99.42;96621.34;2080740;28;20896;-62
2022/02/07 05:42:06;;;;;;;1.25;0.73;;;;;;;-0.75;99.26;96620.44;2080280;28;20199;-62
2022/02/07 05:43:08;;;;;;;2.88;0.75;;;;;;;-0.67;99.50;96635.69;2081170;28;20201;-62
2022/02/07 05:44:12;;;;;;;2.17;0.95;;;;;;;-0.62;99.23;96626.97;2081342;28;20690;-62
2022/02/07 05:45:14;;;;;;;6.72;1.00;;;;;;;-0.73;99.09;96612.69;2080955;28;20540;-62
2022/02/07 05:46:16;;;;;;;4.35;0.80;;;;;;;-0.64;99.46;96631.31;2081033;28;20200;-62
2022/02/07 05:47:17;;;;;;;7.60;1.52;;;;;;;-0.64;99.24;96630.47;2081262;28;20560;-62
2022/02/07 05:48:19;;;;;;;1.65;0.70;;;;;;;-0.57;99.78;96626.03;2081112;28;20196;-62
2022/02/07 05:49:22;;;;;;;4.82;0.73;;;;;;;-0.58;98.88;96624.34;2080923;28;20204;-62
2022/02/07 05:50:24;;;;;;;2.92;1.17;;;;;;;-0.53;99.28;96637.94;2080833;28;20200;-62
2022/02/07 05:51:26;;;;;;;3.15;1.00;;;;;;;-0.56;99.07;96630.28;2081286;28;20207;-61
2022/02/07 05:52:27;;;;;;;3.70;1.20;;;;;;;-0.59;99.23;96628.63;2080308;28;20236;-61
2022/02/07 05:53:28;;;;;;;15.25;1.48;;;;;;;-0.53;99.06;96637.94;2080550;28;20666;-62
2022/02/07 05:54:30;;;;;;;13.07;1.13;;;;;;;-0.50;98.70;96649.00;2081000;28;20205;-62
2022/02/07 05:55:31;;;;;;;6.95;1.10;;;;;;;-0.46;98.52;96654.91;2080562;28;20745;-62
2022/02/07 05:56:33;;;;;;;3.80;1.10;;;;;;;-0.46;98.37;96640.31;2081165;28;20200;-62
2022/02/07 05:57:34;;;;;;;6.35;1.25;;;;;;;-0.43;98.27;96652.28;2081060;28;20338;-62
2022/02/07 05:58:36;;;;;;;2.83;1.20;;;;;;;-0.43;98.04;96644.56;2080974;28;20212;-62
2022/02/07 05:59:37;;;;;;;4.93;1.20;;;;;;;-0.43;98.01;96650.53;2081253;28;20203;-62
2022/02/07 06:00:39;;;;;;;4.45;1.25;;;;;;;-0.50;97.48;96640.44;2080439;28;20232;-62
2022/02/07 06:01:41;;;;;;;3.45;1.15;;;;;;;-0.37;96.93;96659.84;2081046;28;20207;-62
2022/02/07 06:02:42;;;;;;;9.38;1.60;;;;;;;-0.35;96.43;96659.78;2081174;28;20207;-62
2022/02/07 06:03:46;;;;;;;6.15;1.05;;;;;;;-0.30;96.42;96671.66;2080643;28;20207;-62
2022/02/07 06:04:47;;;;;;;2.47;1.17;;;;;;;-0.41;96.43;96664.22;2081001;28;20728;-62
2022/02/07 06:05:49;;;;;;;6.10;1.52;;;;;;;-0.37;96.47;96659.84;2080615;28;20230;-62
2022/02/07 06:06:51;;;;;;;3.88;1.20;;;;;;;-0.40;96.12;96671.03;2080366;28;20209;-62
2022/02/07 06:07:53;;;;;;;3.88;1.13;;;;;;;-0.43;95.87;96670.28;2080943;28;20205;-62
2022/02/07 06:08:54;;;;;;;3.75;1.10;;;;;;;-0.37;96.19;96680.44;2081192;28;20639;-62
2022/02/07 06:09:56;;;;;;;2.85;1.00;;;;;;;-0.45;95.83;96670.31;2079244;28;20202;-62
2022/02/07 06:11:00;;;;;;;7.57;3.15;;;;;;;-0.45;96.09;96680.63;2079896;28;20258;-62
2022/02/07 06:12:02;;;;;;;6.35;1.17;;;;;;;-0.40;96.27;96683.06;2080084;28;20253;-62
2022/02/07 06:13:06;;;;;;;5.43;1.42;;;;;;;-0.46;96.41;96694.34;2080981;28;20200;-62
2022/02/07 06:14:08;;;;;;;4.95;1.42;;;;;;;-0.47;96.76;96689.22;2080919;28;20226;-61
2022/02/07 06:15:09;;;;;;;5.72;1.40;;;;;;;-0.48;96.07;96688.41;2079659;28;20212;-62
2022/02/07 06:16:15;;;;;;;6.28;1.95;;;;;;;-0.45;96.18;96702.91;2080211;28;20196;-61
2022/02/07 06:17:17;;;;;;;2.15;1.00;;;;;;;-0.54;96.30;96703.16;2079618;28;20216;-62
2022/02/07 06:18:20;;;;;;;8.02;1.10;;;;;;;-0.57;96.92;96704.03;2080489;28;20201;-62
2022/02/07 06:19:21;;;;;;;4.35;0.80;;;;;;;-0.57;96.46;96709.19;2080368;28;20201;-62
2022/02/07 06:20:24;;;;;;;3.95;1.55;;;;;;;-0.55;96.42;96712.56;2079733;28;20203;-62
2022/02/07 06:21:27;;;;;;;6.22;1.42;;;;;;;-0.49;96.22;96724.44;2081029;28;20235;-61
2022/02/07 06:22:28;;;;;;;3.75;1.17;;;;;;;-0.54;96.66;96721.16;2080233;28;20197;-62
2022/02/07 06:23:30;;;;;;;3.90;1.30;;;;;;;-0.52;96.60;96727.09;2080303;28;20208;-61
2022/02/07 06:24:31;;;;;;;3.53;1.10;;;;;;;-0.57;96.90;96723.78;2081027;28;20208;-61
2022/02/07 06:25:33;;;;;;;6.97;1.13;;;;;;;-0.60;96.97;96725.53;2079673;28;20290;-62
2022/02/07 06:26:34;;;;;;;1.60;0.80;;;;;;;-0.51;96.24;96733.94;2080122;28;20199;-62
2022/02/07 06:27:36;;;;;;;4.35;0.98;;;;;;;-0.52;96.41;96733.09;2080056;28;20717;-61
2022/02/07 06:28:38;;;;;;;5.13;0.90;;;;;;;-0.57;95.83;96729.75;2080846;28;20670;-62
2022/02/07 06:29:39;;;;;;;11.10;1.63;;;;;;;-0.48;96.06;96744.16;2080784;28;20211;-61
2022/02/07 06:30:41;;;;;;;6.82;1.02;;;;;;;-0.45;95.97;96749.22;2080325;28;20242;-62
2022/02/07 06:31:42;;;;;;;8.90;0.90;;;;;;;-0.45;96.42;96749.22;2080872;28;20645;-61
2022/02/07 06:32:44;;;;;;;6.57;1.52;;;;;;;-0.52;95.65;96738.25;2079180;28;20202;-61